Time;durP1;ratioP1;P1;durP2;ratioP2;P2;SDS_P1;SDS_P2;PMS_P1;PMS_P2;Temp;Humidity;BMP_temperature;BMP_pressure;BME280_temperature;BME280_humidity;BME280_pressure;Samples;Min_cycle;Max_cycle;Signal;HPM_P1;HPM_P2
2022/02/10 00:20:52;;;;;;;;;54.75;44.50;;;;;9.39;83.61;101506.69;6250951;22;45805;-83
2022/02/10 00:36:28;;;;;;;;;56.00;45.75;;;;;9.45;83.79;101526.31;6251789;22;44831;-84
2022/02/10 00:39:10;;;;;;;;;52.00;42.00;;;;;9.38;83.82;101514.59;6252137;22;45140;-83
2022/02/10 00:41:36;;;;;;;;;55.50;44.50;;;;;9.38;84.46;101507.53;6251124;22;45285;-84
2022/02/10 00:44:01;;;;;;;;;61.00;47.50;;;;;9.43;84.13;101517.38;6251210;22;45839;-83
2022/02/10 00:46:26;;;;;;;;;55.25;43.75;;;;;9.45;84.25;101519.22;6224867;22;45379;-83
2022/02/10 00:48:52;;;;;;;;;56.00;45.75;;;;;9.45;84.17;101511.25;6250478;22;45481;-83
2022/02/10 00:51:18;;;;;;;;;55.00;42.50;;;;;9.43;84.61;101504.13;6283616;22;45794;-83
2022/02/10 00:53:45;;;;;;;;;59.50;49.00;;;;;9.49;84.55;101506.97;6285531;22;45458;-83
2022/02/10 00:56:12;;;;;;;;;48.67;41.33;;;;;9.51;84.09;101510.56;6286699;22;45300;-83
2022/02/10 00:58:41;;;;;;;;;59.00;46.00;;;;;9.54;83.91;101510.66;6285116;22;46460;-83
2022/02/10 01:12:28;;;;;;;;;56.25;46.25;;;;;9.51;84.83;101515.88;6314340;22;45635;-83
2022/02/10 01:29:33;;;;;;;;;54.00;43.00;;;;;9.70;84.13;101534.19;6314776;22;45377;-83
2022/02/10 01:30:07;;;;;;;;;45.00;38.67;;;;;9.73;84.44;101533.38;6314367;22;45669;-83
2022/02/10 01:32:32;;;;;;;;;54.67;42.00;;;;;9.69;84.20;101521.72;6284512;22;47061;-83
2022/02/10 01:34:58;;;;;;;;;44.67;39.00;;;;;9.72;84.08;101523.59;6311559;22;45457;-83
2022/02/10 01:37:24;;;;;;;;;42.00;38.67;;;;;9.67;84.57;101531.41;6286732;22;45706;-83
2022/02/10 01:39:54;;;;;;;;;30.67;28.00;;;;;9.67;84.45;101535.84;6314979;22;45321;-83
2022/02/10 02:04:18;;;;;;;;;42.67;37.00;;;;;9.72;85.90;101540.44;6250581;22;45335;-86
2022/02/10 02:06:46;;;;;;;;;34.67;32.00;;;;;9.68;85.27;101522.59;6251738;22;45267;-86
2022/02/10 02:09:14;;;;;;;;;40.00;36.00;;;;;9.69;85.26;101520.84;6251143;22;45679;-85
2022/02/10 02:11:42;;;;;;;;;44.33;37.33;;;;;9.69;85.75;101520.84;6251408;22;45340;-86
2022/02/10 02:14:17;;;;;;;;;38.00;35.67;;;;;9.68;85.76;101525.25;6225076;22;46327;-86
2022/02/10 02:16:48;;;;;;;;;37.67;35.67;;;;;9.63;85.40;101526.88;6224547;22;44828;-86
2022/02/10 02:19:13;;;;;;;;;39.33;34.33;;;;;9.60;85.84;101524.13;6225815;22;44898;-86
2022/02/10 02:21:41;;;;;;;;;45.00;38.67;;;;;9.61;85.89;101523.25;6225732;22;45712;-86
2022/02/10 02:24:08;;;;;;;;;39.33;36.00;;;;;9.61;85.91;101528.56;6229581;22;47136;-85
2022/02/10 02:26:34;;;;;;;;;40.00;36.00;;;;;9.59;86.23;101519.66;6283185;22;45353;-85
2022/02/10 02:29:04;;;;;;;;;37.33;33.00;;;;;9.58;86.23;101518.75;6287388;22;44830;-85
2022/02/10 02:31:54;;;;;;;;;40.33;37.33;;;;;9.61;86.41;101518.88;6316132;22;45294;-85
2022/02/10 02:40:22;;;;;;;;;35.33;31.67;;;;;9.63;86.14;101526.88;6312994;22;44725;-86
2022/02/10 03:07:34;;;;;;;;;31.33;27.33;;;;;9.67;85.83;101512.81;6317444;22;45452;-85
2022/02/10 03:11:06;;;;;;;;;44.00;34.00;;;;;9.58;86.17;101507.25;6289059;22;45208;-86
2022/02/10 03:12:54;;;;;;;;;35.00;33.33;;;;;9.58;85.71;101501.94;6295887;22;45347;-86
2022/02/10 03:15:29;;;;;;;;;30.67;26.33;;;;;9.66;85.70;101519.00;6317658;22;45184;-85
2022/02/10 04:02:04;;;;;;;;;32.67;28.67;;;;;9.68;84.64;101527.91;6316762;22;45346;-85
2022/02/10 04:15:20;;;;;;;;;35.00;30.33;;;;;9.62;84.19;101543.66;6318613;22;45417;-84
2022/02/10 04:26:20;;;;;;;;;28.00;25.33;;;;;9.55;84.02;101552.28;6318754;22;45408;-85
2022/02/10 04:54:36;;;;;;;;;38.33;32.67;;;;;9.41;84.36;101574.00;6224694;22;45633;-85
2022/02/10 05:13:53;;;;;;;;;33.67;31.67;;;;;9.33;84.15;101556.94;6100316;23;44848;-85
2022/02/10 05:21:02;;;;;;;;;27.00;26.00;;;;;9.36;84.17;101554.38;6100755;23;45384;-86
2022/02/10 05:23:51;;;;;;;;;35.67;30.00;;;;;9.39;84.06;101561.50;6100140;23;45337;-85
2022/02/10 05:32:06;;;;;;;;;31.67;27.67;;;;;9.39;83.69;101557.13;6101887;23;45394;-86
2022/02/10 05:34:40;;;;;;;;;30.00;25.00;;;;;9.45;83.53;101569.69;6076968;23;44830;-85
2022/02/10 05:37:06;;;;;;;;;32.33;29.67;;;;;9.44;83.81;101577.63;6101508;23;44891;-86
2022/02/10 05:39:33;;;;;;;;;32.33;26.67;;;;;9.37;83.60;101569.47;6100063;23;47616;-86
2022/02/10 05:57:54;;;;;;;;;25.33;22.67;;;;;9.24;83.90;101585.81;6285995;22;45607;-86
2022/02/10 06:02:03;;;;;;;;;35.00;29.33;;;;;9.29;84.15;101593.94;6286668;22;45548;-86
2022/02/10 06:56:12;;;;;;;;;30.00;27.33;;;;;9.51;83.88;101622.09;6136090;23;45459;-86
2022/02/10 07:10:19;;;;;;;;;29.33;27.00;;;;;9.51;83.57;101619.44;6017781;23;44937;-85
2022/02/10 07:12:50;;;;;;;;;32.33;31.00;;;;;9.51;83.55;101627.41;6037164;23;45363;-85
2022/02/10 07:52:23;;;;;;;;;41.33;35.67;;;;;9.63;83.58;101637.50;6143284;23;44983;-86
2022/02/10 08:00:07;;;;;;;;;43.00;35.67;;;;;9.59;83.99;101639.16;6166427;23;44788;-87
2022/02/10 08:49:53;;;;;;;;;40.67;35.00;;;;;10.04;82.55;101684.00;6287391;22;45258;-86
2022/02/10 09:47:57;;;;;;;;;35.00;30.00;;;;;11.09;78.09;101672.03;6322060;22;44850;-85
2022/02/10 10:02:14;;;;;;;;;34.67;31.00;;;;;11.63;77.09;101718.69;6321149;22;45302;-86
2022/02/10 10:08:11;;;;;;;;;21.67;21.67;;;;;11.56;76.62;101696.31;6290697;22;45193;-86
2022/02/10 10:16:30;;;;;;;;;40.33;36.67;;;;;11.49;76.08;101680.13;6320309;22;45236;-85
2022/02/10 10:19:16;;;;;;;;;32.33;28.00;;;;;11.85;75.71;101732.56;6319869;22;45383;-86
2022/02/10 10:22:19;;;;;;;;;30.33;26.67;;;;;11.65;75.15;101679.66;6318982;22;45386;-84
2022/02/10 10:25:21;;;;;;;;;38.33;31.00;;;;;12.03;74.60;101729.47;6321711;22;44703;-86
2022/02/10 10:56:37;;;;;;;;;24.00;22.67;;;;;12.42;73.03;101716.13;6323301;22;45333;-81
2022/02/10 11:40:55;;;;;;;;;18.67;18.67;;;;;13.32;70.51;101701.09;6021486;23;45017;-84
2022/02/10 11:43:41;;;;;;;;;15.00;13.67;;;;;13.35;70.41;101690.47;6017232;23;44759;-85
2022/02/10 14:15:17;;;;;;;;;14.00;14.00;;;;;13.53;70.38;101558.00;6321875;22;44786;-83
2022/02/10 14:31:46;;;;;;;;;15.33;13.00;;;;;13.28;69.65;101543.34;6255949;22;45068;-85
2022/02/10 14:34:20;;;;;;;;;10.33;10.00;;;;;13.30;69.80;101541.66;6257606;22;45769;-85
2022/02/10 14:36:48;;;;;;;;;10.67;9.33;;;;;13.27;69.80;101547.81;6213012;22;45489;-85
2022/02/10 14:39:26;;;;;;;;;10.00;10.00;;;;;13.21;69.88;101540.59;6259044;22;44838;-85
2022/02/10 16:17:57;;;;;;;;;6.33;6.33;;;;;12.78;68.49;101488.25;6236112;22;45483;-82
2022/02/10 16:20:30;;;;;;;;;9.33;8.00;;;;;12.96;68.48;101522.34;6233232;22;45165;-84
2022/02/10 16:23:02;;;;;;;;;8.67;6.00;;;;;12.97;68.38;101516.16;6231593;22;46631;-84
2022/02/10 16:25:32;;;;;;;;;10.33;10.33;;;;;12.96;68.24;101512.56;6258226;22;45444;-84
2022/02/10 16:28:10;;;;;;;;;11.67;9.67;;;;;12.91;68.19;101510.72;6232944;22;45292;-83
2022/02/10 16:30:37;;;;;;;;;9.33;7.67;;;;;12.97;68.08;101516.16;6258715;22;45267;-81
2022/02/10 16:33:04;;;;;;;;;13.00;9.00;;;;;12.92;67.92;101510.72;6233943;22;45514;-83
2022/02/10 16:35:32;;;;;;;;;10.33;9.00;;;;;12.93;67.58;101507.19;6207533;22;45466;-84
2022/02/10 16:37:59;;;;;;;;;9.00;9.00;;;;;12.94;67.79;101521.44;6258778;22;44837;-82
2022/02/10 16:40:25;;;;;;;;;10.67;9.33;;;;;12.94;67.86;101516.97;6234963;22;45313;-83
2022/02/10 16:42:52;;;;;;;;;11.00;10.00;;;;;12.86;67.94;101504.38;6237834;22;47007;-82
2022/02/10 16:45:18;;;;;;;;;11.67;8.33;;;;;12.91;67.97;101527.63;6263792;22;45513;-84
2022/02/10 16:47:44;;;;;;;;;11.00;9.67;;;;;12.88;68.22;101527.56;6294717;22;44783;-83
2022/02/10 16:50:10;;;;;;;;;13.00;10.33;;;;;12.83;68.23;101526.59;6293160;22;44929;-84
2022/02/10 16:52:47;;;;;;;;;9.67;9.67;;;;;12.77;68.16;101515.81;6295076;22;45300;-83
2022/02/10 17:25:40;;;;;;;;;3.33;2.33;;;;;9.58;90.32;101613.47;6078552;23;45710;-83
2022/02/10 17:28:11;;;;;;;;;3.00;3.00;;;;;9.29;93.83;101605.47;6077210;23;45453;-83
2022/02/10 17:36:49;;;;;;;;;3.33;2.00;;;;;9.20;91.33;101652.94;6077218;23;45349;-85
2022/02/10 17:42:33;;;;;;;;;7.00;4.00;;;;;9.07;90.43;101661.28;6079030;23;44940;-81
2022/02/10 17:53:51;;;;;;;;;4.67;3.00;;;;;8.94;90.88;101684.75;6321925;22;45337;-84
2022/02/10 17:56:16;;;;;;;;;7.00;6.00;;;;;8.92;90.99;101673.19;6293795;22;44985;-83
2022/02/10 17:58:51;;;;;;;;;6.33;6.33;;;;;8.99;90.08;101680.53;6321139;22;46648;-83
2022/02/10 18:01:17;;;;;;;;;6.33;5.33;;;;;8.98;90.16;101688.41;6293619;22;45392;-83
2022/02/10 18:03:42;;;;;;;;;4.00;4.00;;;;;8.89;90.43;101672.19;6322384;22;45336;-82
2022/02/10 18:06:21;;;;;;;;;4.00;4.00;;;;;8.90;90.89;101680.19;6293826;22;45357;-82
2022/02/10 18:14:37;;;;;;;;;4.00;4.00;;;;;8.99;91.98;101698.19;6318058;22;44751;-82
2022/02/10 18:19:37;;;;;;;;;9.00;9.00;;;;;8.88;90.68;101705.75;6284376;22;44882;-82
2022/02/10 18:24:55;;;;;;;;;7.33;7.00;;;;;8.82;91.08;101702.88;6289802;22;45008;-83
2022/02/10 18:27:29;;;;;;;;;7.00;6.67;;;;;8.77;90.32;101718.63;6286576;22;45393;-83
2022/02/10 19:10:07;;;;;;;;;1.33;1.33;;;;;8.23;88.55;101788.94;6292797;22;45328;-83
2022/02/10 19:16:01;;;;;;;;;2.00;1.00;;;;;8.08;89.16;101795.44;6305680;22;45764;-83
2022/02/10 19:18:26;;;;;;;;;2.67;2.00;;;;;8.16;88.59;101786.06;6320974;22;45278;-83
2022/02/10 19:20:52;;;;;;;;;1.00;1.00;;;;;8.24;88.45;101801.34;6321814;22;45392;-83
2022/02/10 19:23:17;;;;;;;;;1.00;1.00;;;;;8.24;88.45;101798.69;6293394;22;46675;-82
2022/02/10 19:25:43;;;;;;;;;3.33;3.33;;;;;8.26;88.56;101805.88;6295192;22;45187;-83
2022/02/10 19:28:10;;;;;;;;;2.67;2.00;;;;;8.30;88.79;101809.53;6296331;22;45145;-82
2022/02/10 19:30:37;;;;;;;;;2.00;2.00;;;;;8.31;88.71;101806.06;6296255;22;45532;-82
2022/02/10 19:33:07;;;;;;;;;3.00;3.00;;;;;8.34;89.40;101806.16;6323180;22;45322;-82
2022/02/10 19:35:39;;;;;;;;;3.67;3.67;;;;;8.35;88.70;101813.28;6323805;22;44679;-82
2022/02/10 19:38:05;;;;;;;;;2.00;2.00;;;;;8.25;88.87;101809.34;6321987;22;45495;-83
2022/02/10 19:40:36;;;;;;;;;3.00;3.00;;;;;8.29;88.73;101828.94;6324082;22;45302;-83
2022/02/10 19:43:02;;;;;;;;;2.00;2.00;;;;;8.29;89.63;101832.50;6323364;22;45598;-83
2022/02/10 19:45:27;;;;;;;;;3.00;3.00;;;;;8.29;89.02;101821.00;6323454;22;44762;-83
2022/02/10 19:47:53;;;;;;;;;7.33;4.00;;;;;8.31;89.60;101821.97;6296194;22;45258;-83
2022/02/10 19:50:30;;;;;;;;;6.00;6.00;;;;;8.39;89.13;101836.44;6294932;22;45707;-83
2022/02/10 19:53:03;;;;;;;;;2.67;2.67;;;;;8.39;89.32;101828.47;6321888;22;45462;-83
2022/02/10 19:55:31;;;;;;;;;3.33;3.33;;;;;8.39;89.04;101833.78;6320888;22;45221;-83
2022/02/10 19:58:07;;;;;;;;;3.67;3.33;;;;;8.38;89.65;101821.34;6322784;22;44794;-84
2022/02/10 20:00:41;;;;;;;;;6.67;6.67;;;;;8.50;89.34;101832.47;6296739;22;44926;-83
2022/02/10 20:03:18;;;;;;;;;7.00;7.00;;;;;8.42;89.85;101828.63;6296181;22;47161;-83
2022/02/10 20:05:45;;;;;;;;;4.00;4.00;;;;;8.39;88.49;101839.06;6295219;22;45515;-83
2022/02/10 20:08:16;;;;;;;;;3.00;3.00;;;;;8.33;89.00;101846.78;6321520;22;45263;-83
2022/02/10 20:10:43;;;;;;;;;2.00;2.00;;;;;8.18;88.53;101839.09;6318677;22;45461;-83
2022/02/10 20:13:16;;;;;;;;;4.00;4.00;;;;;8.09;88.67;101838.72;6290952;22;47011;-83
2022/02/10 20:15:42;;;;;;;;;6.67;4.00;;;;;8.06;88.50;101846.53;6318784;22;44755;-83
2022/02/10 20:18:10;;;;;;;;;3.00;3.00;;;;;8.05;88.94;101850.03;6291839;22;45275;-83
2022/02/10 20:20:36;;;;;;;;;3.67;2.33;;;;;7.99;88.89;101848.91;6292936;22;45237;-84
2022/02/10 20:23:01;;;;;;;;;4.00;3.00;;;;;7.95;88.91;101846.97;6292681;22;47523;-83
2022/02/10 20:25:28;;;;;;;;;2.00;2.00;;;;;7.98;88.55;101854.19;6321762;22;45394;-83
2022/02/10 20:27:54;;;;;;;;;4.00;4.00;;;;;7.93;89.12;101843.34;6320922;22;45449;-81
2022/02/10 20:30:20;;;;;;;;;2.33;2.00;;;;;8.00;89.60;101833.94;6294164;22;45285;-83
2022/02/10 20:32:45;;;;;;;;;3.00;3.00;;;;;8.00;88.93;101818.06;6321386;22;45183;-84
2022/02/10 20:35:13;;;;;;;;;2.33;2.33;;;;;8.09;88.76;101839.63;6321890;22;45310;-82
2022/02/10 20:37:39;;;;;;;;;3.67;3.67;;;;;8.02;88.19;101856.13;6321733;22;45360;-83
2022/02/10 20:40:06;;;;;;;;;3.00;3.00;;;;;7.88;88.88;101862.56;6294159;22;45701;-82
2022/02/10 20:42:33;;;;;;;;;4.00;3.00;;;;;7.75;88.97;101859.38;6292052;22;47534;-82
2022/02/10 20:44:58;;;;;;;;;6.33;6.33;;;;;7.69;89.71;101867.03;6294169;22;45386;-83
2022/02/10 20:47:25;;;;;;;;;6.67;6.67;;;;;7.59;90.14;101865.75;6319366;22;45195;-83
2022/02/10 20:49:52;;;;;;;;;4.00;4.00;;;;;7.66;89.60;101880.16;6322039;22;45412;-83
2022/02/10 20:52:18;;;;;;;;;4.33;4.33;;;;;7.59;89.74;101875.41;6294188;22;47040;-83
2022/02/10 20:54:45;;;;;;;;;3.67;3.00;;;;;7.63;89.86;101890.59;6321685;22;44822;-82
2022/02/10 20:57:11;;;;;;;;;5.33;5.33;;;;;7.62;89.90;101880.88;6321742;22;45278;-82
2022/02/10 20:59:39;;;;;;;;;7.00;4.33;;;;;7.78;89.78;101891.28;6294528;22;45329;-81
2022/02/10 21:05:38;;;;;;;;;3.67;3.67;;;;;7.67;89.72;101881.94;6321719;22;45399;-82
2022/02/10 21:08:16;;;;;;;;;4.33;4.00;;;;;7.64;89.59;101887.13;6321244;22;45498;-82
2022/02/10 21:10:42;;;;;;;;;3.67;3.67;;;;;7.64;89.50;101900.38;6321874;22;45697;-82
2022/02/10 21:13:10;;;;;;;;;7.33;6.67;;;;;7.59;88.99;101893.94;6294495;22;46949;-81
2022/02/10 21:15:45;;;;;;;;;5.00;4.33;;;;;7.58;89.34;101897.44;6294148;22;45443;-82
2022/02/10 21:18:12;;;;;;;;;5.67;4.33;;;;;7.60;89.38;101904.63;6320034;22;44721;-82
2022/02/10 21:20:38;;;;;;;;;3.00;3.00;;;;;7.62;89.47;101904.69;6295276;22;45389;-81
2022/02/10 21:25:40;;;;;;;;;3.00;3.00;;;;;7.65;89.09;101898.63;6321571;22;45938;-83
2022/02/10 21:28:42;;;;;;;;;7.67;5.33;;;;;7.63;89.59;101898.53;6294442;22;45373;-83
2022/02/10 21:31:03;;;;;;;;;3.00;3.00;;;;;7.59;89.11;101893.94;6318790;22;45388;-83
2022/02/10 21:33:44;;;;;;;;;4.33;4.33;;;;;7.70;89.16;101908.59;6294752;22;46812;-83
2022/02/10 21:39:43;;;;;;;;;7.00;5.67;;;;;7.73;89.05;101905.16;6322158;22;45334;-83
2022/02/10 22:03:32;;;;;;;;;5.33;5.33;;;;;7.65;89.43;101906.56;6321790;22;45381;-82
2022/02/10 22:11:26;;;;;;;;;6.67;6.00;;;;;7.71;89.13;101910.38;6317516;22;45353;-82
2022/02/10 22:19:12;;;;;;;;;7.33;7.33;;;;;7.84;88.78;101916.22;6320234;22;45356;-83
2022/02/10 22:21:59;;;;;;;;;11.00;9.33;;;;;7.79;89.13;101924.88;6320088;22;45407;-82
2022/02/10 22:24:24;;;;;;;;;8.33;6.67;;;;;7.80;89.11;101931.97;6318380;22;45357;-82
2022/02/10 22:26:52;;;;;;;;;1.00;1.00;;;;;7.77;88.99;101928.28;6292558;22;47600;-81
2022/02/10 22:29:35;;;;;;;;;6.67;4.00;;;;;7.79;89.14;101934.56;6292100;22;45361;-84
2022/02/10 22:32:28;;;;;;;;;8.67;7.33;;;;;7.75;88.86;101933.50;6292705;22;45275;-81
2022/02/10 22:34:54;;;;;;;;;6.33;6.33;;;;;7.66;89.06;101943.72;6293883;22;45339;-81
2022/02/10 22:37:21;;;;;;;;;4.67;4.67;;;;;7.55;89.61;101939.66;6321384;22;45791;-81
2022/02/10 22:39:49;;;;;;;;;11.00;8.00;;;;;7.54;89.55;101952.00;6318813;22;45937;-81
2022/02/10 22:42:15;;;;;;;;;9.67;9.67;;;;;7.41;89.97;101932.00;6291497;22;45330;-81
2022/02/10 22:44:41;;;;;;;;;9.67;8.00;;;;;7.35;89.79;101942.31;6290749;22;45461;-82
2022/02/10 22:47:08;;;;;;;;;7.33;7.33;;;;;7.30;90.53;101938.53;6290999;22;46608;-82
2022/02/10 22:49:33;;;;;;;;;9.00;9.00;;;;;7.24;90.37;101945.28;6290777;22;45415;-82
2022/02/10 22:51:59;;;;;;;;;11.00;10.00;;;;;7.21;90.48;101948.66;6291239;22;45342;-82
2022/02/10 22:54:25;;;;;;;;;9.67;9.67;;;;;7.14;90.17;101946.59;6319489;22;45306;-81
2022/02/10 22:56:51;;;;;;;;;13.00;12.00;;;;;7.10;90.41;101942.88;6318541;22;45963;-81
2022/02/10 22:59:18;;;;;;;;;13.33;11.67;;;;;7.13;90.32;101939.47;6292370;22;44716;-81
2022/02/10 23:01:44;;;;;;;;;17.33;13.00;;;;;7.11;90.20;101947.34;6320460;22;45443;-82
2022/02/10 23:04:10;;;;;;;;;13.67;11.00;;;;;7.05;91.11;101947.06;6320183;22;46795;-82
2022/02/10 23:06:36;;;;;;;;;12.00;12.00;;;;;6.98;91.03;101952.88;6320305;22;45501;-81
2022/02/10 23:09:23;;;;;;;;;11.00;11.00;;;;;6.92;91.14;101953.47;6319751;22;45376;-83
2022/02/10 23:11:49;;;;;;;;;12.67;12.67;;;;;6.89;90.86;101968.28;6320111;22;45409;-83
2022/02/10 23:14:14;;;;;;;;;15.00;15.00;;;;;6.88;90.88;101963.84;6268843;22;44788;-82
2022/02/10 23:17:51;;;;;;;;;17.00;15.00;;;;;6.97;90.80;101974.88;6317433;22;45377;-82
2022/02/10 23:20:24;;;;;;;;;19.33;16.00;;;;;6.91;90.97;101979.88;6292428;22;45355;-83
2022/02/10 23:22:53;;;;;;;;;17.33;16.33;;;;;6.86;91.23;101987.56;6320866;22;44744;-82
2022/02/10 23:25:19;;;;;;;;;21.33;21.00;;;;;6.80;90.73;101980.22;6293924;22;45554;-82
2022/02/10 23:27:44;;;;;;;;;16.33;15.00;;;;;6.79;90.61;101977.53;6318647;22;45431;-82
2022/02/10 23:30:12;;;;;;;;;17.67;15.00;;;;;6.76;91.09;101985.28;6291398;22;45440;-81
2022/02/10 23:32:37;;;;;;;;;18.33;16.33;;;;;6.75;91.01;102004.66;6290951;22;45510;-82
2022/02/10 23:35:09;;;;;;;;;25.00;20.67;;;;;6.63;91.47;101989.06;6291322;22;45313;-82
2022/02/10 23:37:35;;;;;;;;;17.00;16.00;;;;;6.68;90.92;101997.22;6318653;22;45531;-81
2022/02/10 23:40:00;;;;;;;;;15.33;15.00;;;;;6.66;91.06;101998.88;6291172;22;45369;-83
2022/02/10 23:43:22;;;;;;;;;16.00;15.00;;;;;6.68;91.44;102006.06;6319603;22;45337;-82
2022/02/10 23:45:47;;;;;;;;;19.00;17.00;;;;;6.60;91.19;102002.13;6291246;22;45580;-83
2022/02/10 23:48:13;;;;;;;;;8.67;8.00;;;;;6.58;91.64;102001.13;6289921;22;48035;-83
2022/02/10 23:50:38;;;;;;;;;23.33;19.67;;;;;6.49;91.47;102006.88;6290524;22;45396;-83
2022/02/10 23:53:04;;;;;;;;;14.67;14.67;;;;;6.55;91.71;102014.22;6289876;22;45839;-83
2022/02/10 23:55:31;;;;;;;;;22.33;19.33;;;;;6.57;91.30;102013.47;6317629;22;44827;-83
